Time;durP1;ratioP1;P1;durP2;ratioP2;P2;SDS_P1;SDS_P2;PMS_P1;PMS_P2;Temp;Humidity;BMP_temperature;BMP_pressure;BME280_temperature;BME280_humidity;BME280_pressure;Samples;Min_cycle;Max_cycle;Signal;HPM_P1;HPM_P2
2022/04/24 00:01:14;;;;;;;26.25;14.73;;;;;;;13.51;69.82;99056.84;4465362;32;33436;-82
2022/04/24 00:03:46;;;;;;;22.52;14.82;;;;;;;13.77;68.90;99054.25;4459410;32;32711;-81
2022/04/24 00:06:14;;;;;;;21.70;14.75;;;;;;;13.33;70.29;99052.78;4464681;32;32848;-81
2022/04/24 00:08:42;;;;;;;20.50;13.85;;;;;;;13.46;70.09;99050.16;4462664;32;33684;-81
2022/04/24 00:11:14;;;;;;;21.80;15.10;;;;;;;13.46;70.09;99047.50;4463354;32;33231;-81
2022/04/24 00:13:42;;;;;;;22.73;15.05;;;;;;;13.48;69.72;99051.78;4464391;32;32136;-82
2022/04/24 00:16:10;;;;;;;21.42;15.15;;;;;;;13.74;68.65;99047.34;4461266;32;33614;-81
2022/04/24 00:18:38;;;;;;;22.37;13.75;;;;;;;13.50;69.54;99055.16;4461672;32;33300;-82
2022/04/24 00:21:06;;;;;;;20.83;14.82;;;;;;;13.57;69.20;99040.50;4475893;32;33746;-81
2022/04/24 00:23:35;;;;;;;20.60;13.95;;;;;;;13.32;70.04;99040.47;4460319;32;32936;-82
2022/04/24 00:26:03;;;;;;;18.17;13.07;;;;;;;13.69;68.63;99035.34;4459536;32;33116;-81
2022/04/24 00:28:30;;;;;;;21.87;13.93;;;;;;;13.32;69.86;99024.56;4474405;32;34352;-81
2022/04/24 00:30:59;;;;;;;17.77;13.13;;;;;;;13.78;68.02;99013.47;4474371;32;33755;-81
2022/04/24 00:33:27;;;;;;;21.70;15.43;;;;;;;13.43;68.86;99010.56;4463410;32;33455;-81
2022/04/24 00:35:55;;;;;;;18.40;13.07;;;;;;;13.56;68.62;99008.78;4464120;32;33886;-82
2022/04/24 00:38:23;;;;;;;19.92;12.98;;;;;;;13.35;69.04;99008.47;4476362;32;33778;-83
2022/04/24 00:40:56;;;;;;;18.25;12.88;;;;;;;12.99;70.52;99023.19;4461441;32;32638;-82
2022/04/24 00:43:24;;;;;;;18.75;12.30;;;;;;;13.29;69.28;99019.47;4476838;32;34324;-83
2022/04/24 00:46:08;;;;;;;21.00;14.30;;;;;;;13.29;69.12;99022.12;4448851;32;32642;-82
2022/04/24 00:48:36;;;;;;;21.65;13.00;;;;;;;12.88;70.62;99025.69;4462915;32;34109;-83
2022/04/24 00:51:14;;;;;;;21.15;13.27;;;;;;;12.87;70.57;99024.00;4464254;32;33482;-83
2022/04/24 00:53:43;;;;;;;21.58;13.18;;;;;;;12.97;70.28;99009.19;4465595;32;33150;-82
2022/04/24 00:56:13;;;;;;;20.83;13.93;;;;;;;12.80;71.04;99012.09;4476570;31;33888;-83
2022/04/24 00:58:41;;;;;;;22.35;14.38;;;;;;;12.73;70.95;99022.25;4457948;32;32711;-82
2022/04/24 01:01:09;;;;;;;18.52;13.40;;;;;;;12.87;70.48;99020.50;4461747;32;32797;-81
2022/04/24 01:03:41;;;;;;;22.62;14.93;;;;;;;12.83;70.71;99030.44;4448878;32;32867;-82
2022/04/24 01:06:17;;;;;;;20.05;13.32;;;;;;;12.90;70.43;99017.63;4477184;32;33514;-81
2022/04/24 01:08:48;;;;;;;19.62;13.65;;;;;;;12.89;70.74;99021.25;4447182;32;35722;-82
2022/04/24 01:11:20;;;;;;;21.52;12.73;;;;;;;13.02;69.78;99025.63;4481532;32;33486;-81
2022/04/24 01:13:49;;;;;;;18.80;13.05;;;;;;;12.94;70.41;99024.44;4452395;32;33399;-81
2022/04/24 01:16:17;;;;;;;21.60;14.32;;;;;;;13.03;69.95;99023.84;4456487;32;33289;-81
2022/04/24 01:18:45;;;;;;;20.98;13.13;;;;;;;13.00;69.81;99018.72;4449707;32;32953;-82
2022/04/24 01:21:12;;;;;;;21.55;13.75;;;;;;;13.35;68.44;99011.13;4468395;32;33765;-81
2022/04/24 01:23:40;;;;;;;19.77;13.88;;;;;;;12.72;70.93;99012.63;4459186;32;32714;-82
2022/04/24 01:26:08;;;;;;;18.67;13.50;;;;;;;12.56;71.29;99015.38;4450228;32;34065;-82
2022/04/24 01:28:36;;;;;;;20.67;13.62;;;;;;;13.03;69.66;99011.44;4474384;32;33863;-82
2022/04/24 01:31:05;;;;;;;21.15;12.77;;;;;;;12.74;70.65;99009.84;4466258;32;33167;-82
2022/04/24 01:33:33;;;;;;;19.55;12.90;;;;;;;13.08;69.27;99004.03;4478185;32;33477;-82
2022/04/24 01:36:04;;;;;;;19.02;13.38;;;;;;;12.83;70.34;99006.59;4464868;32;34197;-82
2022/04/24 01:38:32;;;;;;;19.48;13.50;;;;;;;13.00;69.72;98998.38;4454193;32;33441;-82
2022/04/24 01:41:00;;;;;;;20.65;13.82;;;;;;;12.63;70.87;98993.78;4464143;32;32765;-82
2022/04/24 01:43:28;;;;;;;18.60;13.52;;;;;;;12.92;69.54;98990.09;4466850;32;32903;-82
2022/04/24 01:45:56;;;;;;;20.17;13.80;;;;;;;12.47;71.27;98986.00;4462782;32;33097;-82
2022/04/24 01:48:24;;;;;;;19.73;13.25;;;;;;;13.11;68.83;98991.53;4464406;32;33516;-82
2022/04/24 01:50:53;;;;;;;20.77;14.98;;;;;;;12.55;70.46;99000.44;4464566;32;32536;-82
2022/04/24 01:53:21;;;;;;;19.40;13.60;;;;;;;12.67;70.26;98984.69;4461554;32;32919;-82
2022/04/24 01:55:49;;;;;;;21.15;14.02;;;;;;;12.74;69.86;98989.50;4461568;32;34190;-82
2022/04/24 01:58:17;;;;;;;18.67;12.95;;;;;;;12.45;71.09;98998.50;4461601;32;34731;-82
2022/04/24 02:00:45;;;;;;;20.23;13.27;;;;;;;12.70;69.95;98984.50;4464820;32;32702;-82
2022/04/24 02:03:12;;;;;;;20.58;13.35;;;;;;;12.67;70.08;99000.59;4475587;32;33126;-82
2022/04/24 02:05:41;;;;;;;21.98;14.40;;;;;;;12.54;70.47;98985.50;4461084;32;33817;-82
2022/04/24 02:08:10;;;;;;;19.23;12.77;;;;;;;12.37;70.95;98998.97;4450688;32;32902;-82
2022/04/24 02:10:41;;;;;;;21.95;13.73;;;;;;;12.64;70.34;98990.22;4476116;32;34388;-82
2022/04/24 02:13:15;;;;;;;20.45;14.23;;;;;;;12.53;70.54;98983.81;4465542;32;31653;-82
2022/04/24 02:15:45;;;;;;;20.30;13.52;;;;;;;12.29;71.59;99001.25;4465245;32;33486;-83
2022/04/24 02:18:15;;;;;;;22.27;14.48;;;;;;;12.46;70.98;99001.03;4450591;32;33484;-83
2022/04/24 02:20:42;;;;;;;20.02;13.48;;;;;;;12.67;70.11;98984.69;4462385;32;33493;-82
2022/04/24 02:23:10;;;;;;;21.30;12.88;;;;;;;12.48;70.88;98988.53;4470456;32;33178;-82
2022/04/24 02:25:38;;;;;;;18.95;13.65;;;;;;;12.40;70.87;98993.50;4471901;32;33158;-82
2022/04/24 02:28:06;;;;;;;19.92;13.35;;;;;;;12.16;72.04;98984.47;4461498;32;33653;-82
2022/04/24 02:33:07;;;;;;;19.00;13.70;;;;;;;12.08;72.33;98970.84;4478526;32;33396;-82
2022/04/24 02:35:35;;;;;;;20.77;14.43;;;;;;;11.90;73.09;98979.00;4464438;32;34163;-82
2022/04/24 02:38:03;;;;;;;22.25;14.05;;;;;;;12.29;71.96;98980.06;4476639;32;33009;-83
2022/04/24 02:40:31;;;;;;;17.40;12.70;;;;;;;12.29;71.51;98980.06;4478310;32;33676;-83
2022/04/24 02:42:58;;;;;;;20.52;12.75;;;;;;;12.12;72.17;98990.91;4466185;32;33256;-82
2022/04/24 02:45:26;;;;;;;20.98;13.40;;;;;;;12.23;71.98;98972.53;4464885;32;32537;-82
2022/04/24 02:47:56;;;;;;;19.12;13.75;;;;;;;12.20;71.90;98983.31;4463563;32;33881;-82
2022/04/24 02:50:24;;;;;;;24.15;13.80;;;;;;;11.87;73.19;98981.84;4462096;32;32641;-83
2022/04/24 02:52:53;;;;;;;20.35;14.00;;;;;;;11.80;73.68;98976.03;4459824;32;32874;-83
2022/04/24 02:55:22;;;;;;;20.77;14.52;;;;;;;12.13;72.36;98979.34;4452532;32;32668;-83
2022/04/24 02:57:50;;;;;;;20.02;14.43;;;;;;;12.13;72.27;98976.72;4467446;32;33359;-83
2022/04/24 03:00:24;;;;;;;22.37;13.52;;;;;;;12.25;71.46;98981.25;4465434;32;33530;-84
2022/04/24 03:02:54;;;;;;;21.92;13.62;;;;;;;12.21;71.63;98971.78;4463351;32;33350;-83
2022/04/24 03:05:23;;;;;;;25.55;14.35;;;;;;;11.98;72.23;98965.31;4466396;32;32406;-83
2022/04/24 03:07:51;;;;;;;19.62;14.48;;;;;;;11.93;72.62;98973.53;4461374;32;33907;-83
2022/04/24 03:10:19;;;;;;;23.58;15.90;;;;;;;12.03;72.64;98964.06;4477324;32;33797;-84
2022/04/24 03:12:49;;;;;;;27.92;14.73;;;;;;;11.91;73.08;98959.53;4466758;32;33459;-83
2022/04/24 03:15:17;;;;;;;24.17;15.90;;;;;;;12.27;71.81;98963.44;4461132;32;33666;-83
2022/04/24 03:17:54;;;;;;;24.10;14.80;;;;;;;12.25;71.40;98954.78;4467537;32;35726;-83
2022/04/24 03:20:23;;;;;;;25.10;15.18;;;;;;;12.42;70.87;98949.22;4469624;32;33639;-83
2022/04/24 03:22:51;;;;;;;22.15;14.70;;;;;;;12.29;71.23;98941.22;4446030;32;33472;-83
2022/04/24 03:25:19;;;;;;;22.52;14.60;;;;;;;12.17;71.73;98955.25;4461037;32;34517;-83
2022/04/24 03:27:47;;;;;;;21.42;14.45;;;;;;;12.23;71.50;98956.66;4467533;32;32366;-83
2022/04/24 03:30:15;;;;;;;22.30;14.05;;;;;;;12.40;70.68;98945.84;4452499;32;32831;-83
2022/04/24 03:32:43;;;;;;;20.52;13.43;;;;;;;12.10;72.04;98950.44;4466196;32;32432;-82
2022/04/24 03:35:11;;;;;;;23.67;15.25;;;;;;;12.30;71.34;98923.56;4451903;32;33390;-82
2022/04/24 03:37:39;;;;;;;23.67;14.63;;;;;;;12.24;71.74;98934.53;4463690;32;32969;-83
2022/04/24 03:40:08;;;;;;;25.85;14.87;;;;;;;12.13;71.83;98927.28;4468711;32;34615;-83
2022/04/24 03:42:36;;;;;;;25.20;15.50;;;;;;;12.30;71.63;98926.22;4463142;32;33385;-83
2022/04/24 03:45:09;;;;;;;30.40;17.75;;;;;;;12.33;71.26;98919.84;4473833;32;32773;-82
2022/04/24 03:47:38;;;;;;;24.83;17.27;;;;;;;12.07;72.28;98926.84;4463914;32;33878;-83
2022/04/24 03:50:07;;;;;;;28.12;17.83;;;;;;;12.20;71.74;98925.06;4466256;32;33575;-83
2022/04/24 03:52:37;;;;;;;28.02;17.50;;;;;;;11.99;72.37;98928.16;4458367;32;33032;-83
2022/04/24 03:55:50;;;;;;;26.95;17.40;;;;;;;12.14;71.75;98928.13;4454922;32;34014;-83
2022/04/24 04:00:54;;;;;;;24.77;16.25;;;;;;;12.32;71.42;98921.66;4460225;32;32413;-83
2022/04/24 04:03:22;;;;;;;24.08;15.30;;;;;;;12.28;71.42;98930.72;4464915;32;33397;-83
2022/04/24 04:05:49;;;;;;;23.55;15.68;;;;;;;12.29;71.50;98917.38;4463460;32;32915;-83
2022/04/24 04:08:18;;;;;;;24.55;15.55;;;;;;;12.52;70.71;98929.13;4447945;32;33955;-82
2022/04/24 04:10:46;;;;;;;22.90;16.02;;;;;;;12.00;72.58;98929.84;4482006;32;33513;-82
2022/04/24 04:13:14;;;;;;;24.92;16.42;;;;;;;12.34;71.12;98934.78;4462919;32;32221;-82
2022/04/24 04:15:42;;;;;;;26.15;15.38;;;;;;;12.29;71.26;98937.72;4452400;32;33085;-82
2022/04/24 04:18:10;;;;;;;27.85;15.75;;;;;;;12.69;69.90;98928.03;4472551;32;34624;-84
2022/04/24 04:20:37;;;;;;;23.98;16.33;;;;;;;12.57;70.21;98934.97;4451589;32;32635;-83
2022/04/24 04:23:05;;;;;;;25.92;15.35;;;;;;;12.74;69.72;98933.87;4452220;32;32251;-82
2022/04/24 04:25:33;;;;;;;23.08;14.57;;;;;;;12.59;70.46;98937.53;4470154;32;34436;-82
2022/04/24 04:28:01;;;;;;;25.85;16.35;;;;;;;12.77;69.48;98928.38;4469512;32;33830;-83
2022/04/24 04:30:29;;;;;;;24.58;16.48;;;;;;;12.72;69.60;98930.50;4460847;32;32584;-83
2022/04/24 04:32:57;;;;;;;23.62;14.68;;;;;;;12.99;68.80;98935.72;4462162;32;32571;-82
2022/04/24 04:35:25;;;;;;;23.70;15.25;;;;;;;12.49;70.42;98929.34;4450130;32;33308;-82
2022/04/24 04:37:54;;;;;;;25.50;16.77;;;;;;;12.63;69.95;98931.09;4459489;32;32241;-81
2022/04/24 04:40:23;;;;;;;24.77;15.93;;;;;;;13.04;68.70;98938.91;4448379;32;33093;-83
2022/04/24 04:42:51;;;;;;;24.35;15.60;;;;;;;13.42;67.10;98940.78;4463476;32;32601;-83
2022/04/24 04:45:19;;;;;;;20.45;14.00;;;;;;;13.38;67.28;98943.75;4466291;32;33910;-84
2022/04/24 04:47:47;;;;;;;22.70;14.85;;;;;;;13.28;67.34;98932.94;4463867;32;34715;-84
2022/04/24 04:50:15;;;;;;;21.55;14.60;;;;;;;13.37;67.03;98934.97;4461181;32;33712;-83
2022/04/24 04:52:43;;;;;;;24.98;15.77;;;;;;;13.51;66.43;98932.19;4466811;32;32129;-84
2022/04/24 04:55:12;;;;;;;22.00;14.27;;;;;;;13.42;66.69;98932.84;4464116;32;32699;-83
2022/04/24 04:57:41;;;;;;;20.17;13.75;;;;;;;13.19;67.56;98933.53;4474780;32;35413;-84
2022/04/24 05:00:12;;;;;;;22.55;14.90;;;;;;;13.47;66.33;98930.72;4468637;32;33807;-84
2022/04/24 05:02:44;;;;;;;25.40;15.30;;;;;;;12.87;68.75;98931.28;4464447;32;33213;-84
2022/04/24 05:05:17;;;;;;;23.40;15.38;;;;;;;12.99;68.50;98937.53;4467042;32;33943;-84
2022/04/24 05:07:51;;;;;;;26.12;14.80;;;;;;;13.27;67.86;98931.25;4460054;32;32542;-84
2022/04/24 05:10:21;;;;;;;21.45;13.27;;;;;;;13.35;67.94;98931.56;4435216;32;474186;-84
2022/04/24 05:12:50;;;;;;;23.73;14.80;;;;;;;13.37;67.57;98928.81;4478285;32;33347;-84
2022/04/24 05:15:21;;;;;;;21.65;14.25;;;;;;;13.31;67.86;98919.47;4464609;32;33557;-84
2022/04/24 05:17:54;;;;;;;24.63;17.30;;;;;;;13.17;68.58;98908.94;4461888;32;34665;-84
2022/04/24 05:20:22;;;;;;;23.17;16.05;;;;;;;12.99;69.61;98909.22;4460612;32;32664;-82
2022/04/24 05:22:50;;;;;;;32.63;18.08;;;;;;;12.92;70.04;98918.56;4463596;32;32842;-82
2022/04/24 05:25:20;;;;;;;27.52;18.02;;;;;;;12.68;70.82;98914.91;4458019;32;32919;-83
2022/04/24 05:27:50;;;;;;;34.05;21.00;;;;;;;12.89;70.34;98915.25;4467026;32;34657;-83
2022/04/24 05:33:01;;;;;;;26.52;17.20;;;;;;;13.07;69.52;98911.37;4460501;32;32166;-83
2022/04/24 05:35:32;;;;;;;29.02;17.70;;;;;;;13.34;68.70;98900.72;4477793;32;33243;-83
2022/04/24 05:38:01;;;;;;;30.15;18.80;;;;;;;13.62;68.02;98904.06;4472682;32;33680;-83
2022/04/24 05:40:30;;;;;;;29.98;18.30;;;;;;;14.01;67.01;98893.28;4464449;32;33025;-82
2022/04/24 05:43:03;;;;;;;26.95;16.85;;;;;;;13.74;67.48;98905.88;4473557;32;33559;-83
2022/04/24 05:45:33;;;;;;;28.12;17.40;;;;;;;13.65;68.43;98919.78;4475962;32;34600;-84
2022/04/24 05:48:02;;;;;;;25.80;16.25;;;;;;;13.68;68.36;98932.84;4456722;32;34068;-84
2022/04/24 05:50:33;;;;;;;26.95;17.10;;;;;;;13.72;67.14;98926.34;4451902;32;33723;-83
2022/04/24 05:53:03;;;;;;;26.83;17.65;;;;;;;13.67;67.49;98929.31;4473174;32;33172;-83
2022/04/24 05:55:31;;;;;;;23.10;16.30;;;;;;;13.68;67.63;98927.53;4463195;32;33376;-83
2022/04/24 05:58:00;;;;;;;28.67;17.92;;;;;;;13.41;68.81;98923.19;4461074;32;32616;-83
2022/04/24 06:00:29;;;;;;;31.00;19.50;;;;;;;13.42;68.77;98918.72;4460345;32;33264;-82
2022/04/24 06:02:58;;;;;;;27.55;17.50;;;;;;;13.72;67.91;98921.03;4470404;32;33043;-83
2022/04/24 06:05:30;;;;;;;26.52;18.40;;;;;;;13.97;67.00;98921.00;4454634;32;33512;-83
2022/04/24 06:08:00;;;;;;;28.02;18.55;;;;;;;14.13;66.73;98914.59;4466212;32;34239;-83
2022/04/24 06:10:36;;;;;;;27.27;17.87;;;;;;;14.49;66.06;98911.94;4467290;32;33466;-82
2022/04/24 06:13:07;;;;;;;28.25;18.80;;;;;;;14.35;65.78;98914.72;4458588;32;33660;-82
2022/04/24 06:15:40;;;;;;;25.95;17.30;;;;;;;14.13;66.57;98917.25;4461850;32;33160;-82
2022/04/24 06:18:11;;;;;;;32.47;18.67;;;;;;;13.99;66.86;98916.41;4474819;32;34475;-83
2022/04/24 06:20:43;;;;;;;28.23;19.15;;;;;;;14.15;66.66;98907.34;4478115;32;34080;-83
2022/04/24 06:23:12;;;;;;;30.37;17.93;;;;;;;14.39;66.17;98907.38;4465797;32;32145;-87
2022/04/24 06:25:41;;;;;;;28.25;17.73;;;;;;;14.49;65.55;98914.59;4464152;32;32930;-84
2022/04/24 06:30:43;;;;;;;27.60;18.60;;;;;;;14.75;63.96;98911.78;4476863;32;34511;-82
2022/04/24 06:33:17;;;;;;;31.12;19.92;;;;;;;14.88;63.76;98909.06;4465617;31;32989;-82
2022/04/24 06:35:55;;;;;;;28.70;18.92;;;;;;;14.90;63.85;98902.66;4474515;31;34268;-82
2022/04/24 06:38:32;;;;;;;30.00;18.50;;;;;;;14.53;65.67;98908.09;4452866;32;33016;-82
2022/04/24 06:41:00;;;;;;;28.35;18.48;;;;;;;14.71;65.32;98902.34;4464935;32;33605;-82
2022/04/24 06:43:30;;;;;;;28.35;18.27;;;;;;;14.42;66.06;98909.81;4463123;31;32722;-82
2022/04/24 06:45:58;;;;;;;23.25;17.00;;;;;;;14.66;66.06;98893.88;4452749;32;32754;-82
2022/04/24 06:48:27;;;;;;;24.92;16.92;;;;;;;14.75;65.06;98895.84;4463579;32;34092;-82
2022/04/24 06:51:08;;;;;;;28.20;17.65;;;;;;;14.71;65.55;98891.72;4477663;31;32916;-82
2022/04/24 06:53:45;;;;;;;28.60;17.12;;;;;;;14.98;64.46;98889.66;4453190;32;32080;-82
2022/04/24 06:56:22;;;;;;;26.10;17.95;;;;;;;14.81;65.40;98890.94;4465641;32;34726;-82
2022/04/24 06:58:57;;;;;;;26.70;17.33;;;;;;;14.98;65.37;98891.47;4466425;31;33919;-82
2022/04/24 07:01:39;;;;;;;23.90;16.50;;;;;;;15.81;63.82;98877.91;4452866;31;32733;-82
2022/04/24 07:04:09;;;;;;;29.90;17.48;;;;;;;15.65;62.63;98877.41;4481038;31;33860;-82
2022/04/24 07:06:37;;;;;;;24.55;16.73;;;;;;;15.70;62.88;98877.91;4464473;32;32451;-82
2022/04/24 07:09:21;;;;;;;27.58;17.48;;;;;;;15.88;62.49;98876.44;4466143;32;32386;-82
2022/04/24 07:11:59;;;;;;;24.40;16.20;;;;;;;15.99;61.34;98875.56;4477012;31;34544;-82
2022/04/24 07:14:38;;;;;;;26.30;16.45;;;;;;;15.72;62.29;98883.97;4463336;32;33892;-82
2022/04/24 07:17:08;;;;;;;24.40;16.85;;;;;;;15.64;63.31;98878.41;4460625;32;34047;-82
2022/04/24 07:19:38;;;;;;;26.62;17.37;;;;;;;15.95;63.04;98882.09;4463455;31;34287;-82
2022/04/24 07:22:08;;;;;;;22.90;15.57;;;;;;;15.87;63.02;98875.59;4467614;32;32107;-82
2022/04/24 07:24:40;;;;;;;25.17;16.87;;;;;;;16.06;63.34;98858.97;4466659;31;34252;-82
2022/04/24 07:27:09;;;;;;;25.30;15.80;;;;;;;16.37;60.91;98867.13;4462852;32;33945;-82
2022/04/24 07:29:38;;;;;;;24.70;16.08;;;;;;;16.33;61.48;98860.34;4463077;32;32459;-82
2022/04/24 07:32:09;;;;;;;21.67;15.53;;;;;;;16.31;61.28;98855.16;4457344;32;33630;-83
2022/04/24 07:34:37;;;;;;;24.25;15.10;;;;;;;16.50;61.34;98851.81;4465269;32;33358;-82
2022/04/24 07:37:06;;;;;;;25.70;16.35;;;;;;;16.59;60.66;98851.03;4479045;31;33508;-82
2022/04/24 07:39:40;;;;;;;;;;;;;;;16.29;60.72;98861.59;4474170;32;34460;-83
2022/04/24 07:42:13;;;;;;;21.92;14.93;;;;;;;16.56;60.66;98861.94;4448782;32;34332;-81
2022/04/24 07:44:48;;;;;;;26.87;16.75;;;;;;;16.59;61.01;98853.72;4454120;32;32833;-81
2022/04/24 07:47:18;;;;;;;24.40;15.63;;;;;;;16.72;62.41;98866.06;4468752;31;33311;-81
2022/04/24 07:49:53;;;;;;;25.33;16.83;;;;;;;17.12;60.21;98860.84;4459711;32;33417;-81
2022/04/24 07:52:22;;;;;;;20.98;14.77;;;;;;;17.14;58.92;98872.25;4459942;32;34212;-82
2022/04/24 07:54:53;;;;;;;21.65;14.60;;;;;;;17.23;59.33;98870.59;4470146;32;32782;-82
2022/04/24 07:57:24;;;;;;;21.33;14.73;;;;;;;17.62;58.39;98871.66;4479019;32;32505;-82
2022/04/24 08:00:06;;;;;;;25.42;16.23;;;;;;;17.69;57.79;98863.94;4464934;32;34787;-82
2022/04/24 08:02:45;;;;;;;25.48;14.57;;;;;;;17.45;58.86;98867.75;4477078;32;34664;-82
2022/04/24 08:05:21;;;;;;;;;;;;;;;17.25;59.21;98856.16;4479258;32;32735;-82
2022/04/24 08:07:49;;;;;;;23.55;15.10;;;;;;;17.53;59.41;98827.91;4453818;32;32917;-82
2022/04/24 08:10:20;;;;;;;23.48;15.43;;;;;;;18.04;57.66;98840.31;4455794;31;33303;-82
2022/04/24 08:12:56;;;;;;;19.02;13.65;;;;;;;18.11;56.97;98841.44;4463633;32;32792;-82
2022/04/24 08:18:13;;;;;;;21.40;14.10;;;;;;;18.35;57.58;98833.03;4480035;32;33022;-83
2022/04/24 08:20:47;;;;;;;20.25;13.45;;;;;;;18.71;56.33;98821.81;4458399;32;34529;-82
2022/04/24 08:23:16;;;;;;;22.25;13.32;;;;;;;18.60;55.37;98826.28;4445437;32;33463;-83
2022/04/24 08:25:46;;;;;;;18.65;13.07;;;;;;;18.99;54.86;98801.34;4447568;32;34275;-82
2022/04/24 08:30:59;;;;;;;16.75;11.57;;;;;;;18.96;54.49;98815.88;4481510;32;34874;-82
2022/04/24 08:36:15;;;;;;;16.95;11.77;;;;;;;19.27;50.97;98808.44;4472809;32;32086;-82
2022/04/24 08:38:44;;;;;;;20.48;14.07;;;;;;;18.98;52.23;98811.19;4463854;32;33597;-82
2022/04/24 08:41:13;;;;;;;19.75;12.35;;;;;;;19.03;53.47;98792.03;4471977;32;33922;-82
2022/04/24 08:43:42;;;;;;;19.58;12.85;;;;;;;19.56;53.80;98786.91;4464306;32;33567;-82
2022/04/24 08:46:11;;;;;;;18.33;12.98;;;;;;;19.42;53.09;98785.56;4451339;32;32434;-82
2022/04/24 08:48:45;;;;;;;21.27;12.77;;;;;;;19.41;52.29;98783.84;4470659;32;33244;-82
2022/04/24 08:51:24;;;;;;;19.73;12.48;;;;;;;19.82;52.60;98780.87;4450082;32;33433;-83
2022/04/24 08:53:56;;;;;;;17.75;12.13;;;;;;;20.01;52.10;98783.44;4449465;32;33333;-84
2022/04/24 08:56:30;;;;;;;17.00;10.68;;;;;;;20.32;50.37;98775.00;4479026;31;33822;-85
2022/04/24 09:04:21;;;;;;;7.95;5.45;;;;;;;19.85;51.24;98767.19;4478673;32;33753;-84
2022/04/24 09:06:59;;;;;;;9.02;5.15;;;;;;;19.62;48.81;98759.56;4476943;32;34431;-84
2022/04/24 09:09:29;;;;;;;5.55;4.28;;;;;;;20.32;48.63;98767.81;4464006;32;33825;-84
2022/04/24 09:12:15;;;;;;;5.72;3.50;;;;;;;20.46;46.56;98761.91;4466625;31;34489;-84
2022/04/24 09:17:33;;;;;;;7.93;2.90;;;;;;;20.26;47.56;98757.69;4461550;32;33633;-83
2022/04/24 09:20:20;;;;;;;4.50;2.62;;;;;;;19.98;47.46;98748.88;4464256;32;32963;-83
2022/04/24 09:23:03;;;;;;;3.20;1.58;;;;;;;19.87;46.25;98773.22;4463434;32;34833;-83
2022/04/24 09:25:39;;;;;;;3.53;1.92;;;;;;;20.20;44.80;98761.84;4459178;32;32734;-83
2022/04/24 09:28:08;;;;;;;3.05;1.67;;;;;;;20.20;45.17;98759.16;4483120;32;31719;-86
2022/04/24 09:33:18;;;;;;;3.92;1.30;;;;;;;20.57;44.24;98752.81;4475291;32;34788;-88
2022/04/24 09:35:55;;;;;;;3.85;1.80;;;;;;;20.41;43.84;98752.63;4450409;32;33504;-85
2022/04/24 09:38:27;;;;;;;4.97;1.62;;;;;;;21.03;44.35;98744.53;4449706;32;33210;-85
2022/04/24 09:41:01;;;;;;;3.12;2.00;;;;;;;20.93;43.32;98747.34;4476088;32;33769;-85
2022/04/24 09:43:32;;;;;;;8.23;1.87;;;;;;;20.65;43.36;98747.50;4465500;32;33998;-86
2022/04/24 09:46:04;;;;;;;2.00;1.00;;;;;;;21.20;44.03;98755.22;4461973;32;32276;-85
2022/04/24 09:48:34;;;;;;;5.05;0.90;;;;;;;20.70;40.92;98747.88;4472250;32;33778;-84
2022/04/24 09:51:04;;;;;;;2.67;0.60;;;;;;;20.34;41.39;98756.94;4459319;32;34208;-83
2022/04/24 09:53:36;;;;;;;0.68;0.55;;;;;;;20.09;40.55;98756.72;4478447;32;33096;-82
2022/04/24 09:56:08;;;;;;;6.50;0.90;;;;;;;20.21;41.14;98757.31;4461960;32;33094;-82
2022/04/24 09:58:38;;;;;;;4.65;0.85;;;;;;;20.35;40.79;98754.09;4463220;32;33380;-83
2022/04/24 10:01:09;;;;;;;5.00;0.73;;;;;;;20.16;40.94;98763.12;4482992;32;33661;-84
2022/04/24 10:03:42;;;;;;;5.07;0.40;;;;;;;20.02;40.71;98768.19;4470309;32;33954;-83
2022/04/24 10:06:16;;;;;;;1.80;0.60;;;;;;;20.26;41.49;98783.66;4478369;32;33865;-84
2022/04/24 10:08:51;;;;;;;4.12;0.93;;;;;;;19.62;41.06;98785.50;4455408;32;33246;-83
2022/04/24 10:11:23;;;;;;;3.20;0.80;;;;;;;19.30;42.32;98785.91;4477436;32;33552;-83
2022/04/24 10:14:02;;;;;;;1.52;0.50;;;;;;;19.15;42.23;98788.22;4459040;32;33419;-83
2022/04/24 10:17:09;;;;;;;6.25;0.95;;;;;;;19.48;42.46;98794.84;4484124;32;33557;-82
2022/04/24 10:19:54;;;;;;;5.65;0.65;;;;;;;19.32;42.07;98799.97;4474344;32;32934;-82
2022/04/24 10:22:34;;;;;;;3.62;0.70;;;;;;;19.06;43.42;98795.28;4485642;32;32932;-84
2022/04/24 10:27:48;;;;;;;4.50;0.73;;;;;;;18.81;45.21;98807.44;4471666;32;33627;-83
2022/04/24 10:30:23;;;;;;;4.85;0.73;;;;;;;18.86;45.27;98804.34;4470008;32;31723;-83
2022/04/24 10:33:18;;;;;;;7.05;0.70;;;;;;;18.78;46.62;98806.88;4461457;32;32648;-84
2022/04/24 10:35:57;;;;;;;6.53;1.17;;;;;;;18.67;47.20;98808.69;4483348;32;33790;-84
2022/04/24 10:44:10;;;;;;;2.33;0.43;;;;;;;18.48;46.47;98795.34;4479947;32;33636;-83
2022/04/24 10:46:50;;;;;;;2.10;0.60;;;;;;;18.76;45.64;98792.81;4471050;32;34440;-83
2022/04/24 10:49:25;;;;;;;0.60;0.60;;;;;;;18.76;45.87;98790.16;4456322;32;33168;-83
2022/04/24 11:54:28;;;;;;;1.67;0.95;;;;;;;18.64;50.23;98795.59;4473033;32;33764;-86
2022/04/24 11:57:00;;;;;;;2.35;1.05;;;;;;;19.06;50.09;98781.91;4463031;32;32452;-87
2022/04/24 11:59:35;;;;;;;2.10;0.88;;;;;;;19.25;49.53;98759.56;4461272;32;32923;-87
2022/04/24 12:02:15;;;;;;;1.60;0.95;;;;;;;19.27;49.04;98773.63;4471969;32;33254;-88
2022/04/24 12:05:08;;;;;;;3.87;1.55;;;;;;;19.23;48.35;98780.31;4467868;32;32327;-87
2022/04/24 12:07:40;;;;;;;2.50;1.10;;;;;;;19.25;49.22;98777.47;4479860;32;32847;-88
2022/04/24 12:15:00;;;;;;;3.22;1.67;;;;;;;19.44;48.65;98751.44;4292123;33;34499;-87
2022/04/24 12:18:03;;;;;;;4.60;1.70;;;;;;;19.41;48.91;98742.87;4284033;33;34510;-87
2022/04/24 12:23:31;;;;;;;3.08;1.58;;;;;;;20.29;47.40;98740.47;4312705;33;34265;-87
2022/04/24 12:26:14;;;;;;;2.50;1.30;;;;;;;19.66;49.01;98750.25;4321900;33;33815;-86
2022/04/24 12:29:04;;;;;;;2.33;1.30;;;;;;;19.80;48.55;98746.22;4312575;33;32533;-86
2022/04/24 12:31:47;;;;;;;3.35;1.30;;;;;;;20.46;48.25;98748.50;4323544;33;35006;-87
2022/04/24 12:34:36;;;;;;;2.85;1.05;;;;;;;20.92;47.33;98759.06;4302427;33;33701;-87
2022/04/24 12:37:33;;;;;;;1.87;1.05;;;;;;;20.08;46.54;98762.22;4276400;33;32737;-87
2022/04/24 12:40:22;;;;;;;5.00;1.17;;;;;;;19.87;45.89;98754.47;4296834;33;35331;-86
2022/04/24 12:43:11;;;;;;;3.25;1.37;;;;;;;19.62;46.66;98754.22;4291762;33;33333;-86
2022/04/24 12:45:55;;;;;;;6.68;1.60;;;;;;;19.72;47.18;98732.72;4313737;33;34521;-86
2022/04/24 12:48:45;;;;;;;2.08;1.23;;;;;;;19.82;47.11;98716.59;4288410;33;32817;-86
2022/04/24 12:51:35;;;;;;;1.98;1.00;;;;;;;19.59;47.49;98727.69;4372843;32;33868;-86
2022/04/24 12:54:05;;;;;;;1.15;0.98;;;;;;;19.42;47.15;98725.84;4443940;32;32233;-87
2022/04/24 12:56:42;;;;;;;2.55;1.30;;;;;;;19.72;46.74;98737.25;4429603;32;33338;-86
2022/04/24 12:59:22;;;;;;;2.65;2.45;;;;;;;19.92;47.03;98731.59;4452930;32;32251;-86
2022/04/24 13:02:05;;;;;;;3.70;1.73;;;;;;;19.74;47.96;98729.88;4450351;32;32324;-86
2022/04/24 13:04:35;;;;;;;4.43;1.33;;;;;;;20.05;47.31;98733.06;4454505;32;33045;-86
2022/04/24 13:07:05;;;;;;;2.70;1.12;;;;;;;19.83;47.57;98728.97;4444173;32;33795;-87
2022/04/24 13:09:49;;;;;;;6.53;1.50;;;;;;;19.89;47.01;98739.09;4468221;32;34622;-86
2022/04/24 13:12:24;;;;;;;3.30;1.40;;;;;;;19.95;47.56;98723.25;4472016;31;35134;-87
2022/04/24 13:15:04;;;;;;;3.05;1.33;;;;;;;19.52;47.50;98725.78;4459484;32;32457;-86
2022/04/24 13:20:40;;;;;;;1.65;1.33;;;;;;;19.86;48.43;98713.47;4458841;32;31390;-86
2022/04/24 13:26:02;;;;;;;1.87;1.33;;;;;;;19.14;51.17;98716.97;4450799;32;32206;-86
2022/04/24 13:28:35;;;;;;;3.17;1.27;;;;;;;19.06;51.16;98715.00;4438836;32;33112;-85
2022/04/24 13:31:06;;;;;;;3.50;2.08;;;;;;;19.54;52.52;98711.25;4445813;32;32595;-86
2022/04/24 13:33:41;;;;;;;2.92;1.73;;;;;;;19.34;52.20;98713.19;4452368;32;33709;-86
2022/04/24 13:36:11;;;;;;;3.33;1.90;;;;;;;19.08;54.06;98728.22;4460075;32;32900;-86
2022/04/24 13:38:49;;;;;;;5.78;1.90;;;;;;;18.84;56.16;98734.09;4455692;32;34604;-85